createdAt,value
2018-06-18T00:00:29.153Z,16.21
2018-06-18T00:01:29.149Z,16.26
2018-06-18T00:02:29.138Z,16.26
2018-06-18T00:03:29.136Z,16.28
2018-06-18T00:04:29.131Z,16.26
2018-06-18T00:05:29.121Z,16.28
2018-06-18T00:06:29.116Z,16.26
2018-06-18T00:07:29.107Z,16.23
2018-06-18T00:08:29.105Z,16.35
2018-06-18T00:09:29.103Z,16.32
2018-06-18T00:10:29.090Z,16.28
2018-06-18T00:11:29.089Z,16.26
2018-06-18T00:12:29.077Z,16.29
2018-06-18T00:13:29.072Z,16.24
2018-06-18T00:14:29.077Z,16.26
2018-06-18T00:15:29.077Z,16.26
2018-06-18T00:16:29.061Z,16.28
2018-06-18T00:17:29.054Z,16.26
2018-06-18T00:18:29.080Z,16.38
2018-06-18T00:19:29.039Z,16.28
2018-06-18T00:20:29.034Z,16.35
2018-06-18T00:21:29.027Z,16.29
2018-06-18T00:22:29.024Z,16.35
2018-06-18T00:23:29.018Z,16.33
2018-06-18T00:24:29.012Z,16.31
2018-06-18T00:25:29.006Z,16.26
2018-06-18T00:26:28.998Z,16.32
2018-06-18T00:27:28.992Z,16.26
2018-06-18T00:28:28.983Z,16.26
2018-06-18T00:29:28.985Z,16.28
2018-06-18T00:30:28.976Z,16.21
2018-06-18T00:31:28.970Z,16.26
2018-06-18T00:32:28.964Z,16.17
2018-06-18T00:33:28.956Z,16.15
2018-06-18T00:34:28.950Z,16.15
2018-06-18T00:35:28.942Z,16.21
2018-06-18T00:36:28.941Z,16.15
2018-06-18T00:37:28.935Z,16.16
2018-06-18T00:38:28.933Z,16.05
2018-06-18T00:39:28.922Z,16.10
2018-06-18T00:40:28.914Z,16.09
2018-06-18T00:41:28.912Z,16.23
2018-06-18T00:42:28.907Z,16.20
2018-06-18T00:43:28.898Z,16.05
2018-06-18T00:44:28.893Z,16.09
2018-06-18T00:45:28.892Z,16.28
2018-06-18T00:46:28.879Z,16.16
2018-06-18T00:47:28.876Z,16.16
2018-06-18T00:48:28.868Z,16.23
2018-06-18T00:49:28.860Z,16.17
2018-06-18T00:50:28.855Z,16.26
2018-06-18T00:51:28.849Z,16.26
2018-06-18T00:52:28.864Z,16.24
2018-06-18T00:53:28.836Z,16.24
2018-06-18T00:54:28.832Z,16.29
2018-06-18T00:55:28.823Z,16.15
2018-06-18T00:56:28.816Z,16.16
2018-06-18T00:57:28.815Z,16.13
2018-06-18T00:58:28.811Z,16.20
2018-06-18T00:59:28.803Z,16.10
2018-06-18T01:00:28.801Z,16.20
2018-06-18T01:01:28.790Z,16.09
2018-06-18T01:02:28.782Z,16.09
2018-06-18T01:03:28.777Z,16.16
2018-06-18T01:04:28.774Z,16.04
2018-06-18T01:05:28.773Z,16.12
2018-06-18T01:06:28.761Z,16.09
2018-06-18T01:07:28.756Z,16.15
2018-06-18T01:08:28.754Z,16.20
2018-06-18T01:09:28.749Z,16.16
2018-06-18T01:10:28.742Z,16.20
2018-06-18T01:11:28.785Z,16.12
2018-06-18T01:12:28.730Z,16.16
2018-06-18T01:13:28.726Z,16.08
2018-06-18T01:14:28.712Z,16.02
2018-06-18T01:15:28.708Z,16.09
2018-06-18T01:16:28.701Z,16.16
2018-06-18T01:17:28.698Z,16.08
2018-06-18T01:18:28.691Z,16.02
2018-06-18T01:19:28.686Z,16.13
2018-06-18T01:20:28.674Z,16.13
2018-06-18T01:21:28.670Z,16.05
2018-06-18T01:22:28.663Z,16.02
2018-06-18T01:23:28.658Z,15.97
2018-06-18T01:24:28.655Z,15.97
2018-06-18T01:25:28.650Z,16.05
2018-06-18T01:26:28.644Z,16.04
2018-06-18T01:27:28.638Z,16.05
2018-06-18T01:28:28.630Z,16.09
2018-06-18T01:29:28.623Z,16.05
2018-06-18T01:30:28.623Z,16.09
2018-06-18T01:31:28.617Z,16.08
2018-06-18T01:32:28.609Z,16.04
2018-06-18T01:33:28.605Z,16.00
2018-06-18T01:34:28.593Z,15.92
2018-06-18T01:35:28.589Z,15.97
2018-06-18T01:36:28.581Z,16.00
2018-06-18T01:37:28.572Z,15.97
2018-06-18T01:38:28.571Z,16.05
2018-06-18T01:39:28.566Z,16.01
2018-06-18T01:40:28.559Z,15.97
2018-06-18T01:41:28.550Z,15.95
2018-06-18T01:42:28.547Z,15.92
2018-06-18T01:43:28.540Z,16.05
2018-06-18T01:44:28.536Z,15.92
2018-06-18T01:45:28.532Z,16.02
2018-06-18T01:46:28.522Z,15.91
2018-06-18T01:47:28.519Z,16.01
2018-06-18T01:48:28.512Z,16.04
2018-06-18T01:49:28.505Z,15.98
2018-06-18T01:50:28.502Z,15.98
2018-06-18T01:51:28.494Z,16.01
2018-06-18T01:52:28.491Z,15.91
2018-06-18T01:53:28.481Z,15.91
2018-06-18T01:54:28.477Z,15.94
2018-06-18T01:55:28.468Z,16.01
2018-06-18T01:56:28.467Z,15.91
2018-06-18T01:57:28.458Z,15.95
2018-06-18T01:58:28.453Z,15.94
2018-06-18T01:59:28.443Z,15.97
2018-06-18T02:00:28.443Z,15.92
2018-06-18T02:01:28.436Z,15.91
2018-06-18T02:02:28.424Z,15.92
2018-06-18T02:03:28.418Z,15.88
2018-06-18T02:04:28.416Z,15.90
2018-06-18T02:05:28.415Z,15.84
2018-06-18T02:06:28.407Z,15.86
2018-06-18T02:07:28.400Z,15.88
2018-06-18T02:08:28.389Z,15.77
2018-06-18T02:09:28.402Z,15.90
2018-06-18T02:10:28.414Z,15.90
2018-06-18T02:11:28.374Z,15.91
2018-06-18T02:12:28.366Z,15.97
2018-06-18T02:13:28.365Z,15.91
2018-06-18T02:14:28.360Z,15.98
2018-06-18T02:15:28.348Z,15.91
2018-06-18T02:16:28.342Z,15.84
2018-06-18T02:17:28.334Z,15.92
2018-06-18T02:18:28.334Z,15.91
2018-06-18T02:19:28.325Z,15.88
2018-06-18T02:20:28.319Z,15.84
2018-06-18T02:21:28.314Z,15.92
2018-06-18T02:22:28.305Z,15.86
2018-06-18T02:23:28.297Z,15.91
2018-06-18T02:24:28.292Z,15.91
2018-06-18T02:25:28.283Z,15.91
2018-06-18T02:26:28.283Z,15.91
2018-06-18T02:27:28.276Z,15.92
2018-06-18T02:28:28.276Z,15.97
2018-06-18T02:29:28.261Z,15.94
2018-06-18T02:30:28.262Z,15.94
2018-06-18T02:31:28.247Z,15.90
2018-06-18T02:32:28.244Z,15.84
2018-06-18T02:33:28.246Z,15.92
2018-06-18T02:34:28.235Z,15.77
2018-06-18T02:35:28.229Z,15.80
2018-06-18T02:36:28.219Z,15.80
2018-06-18T02:37:28.213Z,15.79
2018-06-18T02:38:28.205Z,15.88
2018-06-18T02:39:28.200Z,15.82
2018-06-18T02:40:28.197Z,15.79
2018-06-18T02:41:28.188Z,15.79
2018-06-18T02:42:28.184Z,15.79
2018-06-18T02:43:28.177Z,15.80
2018-06-18T02:44:28.165Z,15.73
2018-06-18T02:45:28.163Z,15.83
2018-06-18T02:46:28.155Z,15.80
2018-06-18T02:47:28.155Z,15.77
2018-06-18T02:48:28.145Z,15.77
2018-06-18T02:49:28.145Z,15.79
2018-06-18T02:50:28.137Z,15.77
2018-06-18T02:51:28.129Z,15.80
2018-06-18T02:52:28.121Z,15.68
2018-06-18T02:53:28.114Z,15.80
2018-06-18T02:54:28.110Z,15.77
2018-06-18T02:55:28.103Z,15.70
2018-06-18T02:56:28.096Z,15.79
2018-06-18T02:57:28.093Z,15.75
2018-06-18T02:58:28.081Z,15.73
2018-06-18T02:59:28.086Z,15.72
2018-06-18T03:00:28.084Z,15.73
2018-06-18T03:01:28.080Z,15.77
2018-06-18T03:02:28.082Z,15.73
2018-06-18T03:03:28.079Z,15.77
2018-06-18T03:04:28.044Z,15.75
2018-06-18T03:05:28.039Z,15.77
2018-06-18T03:06:28.034Z,15.80
2018-06-18T03:07:28.024Z,15.76
2018-06-18T03:08:35.011Z,15.79
2018-06-18T03:09:28.018Z,15.73
2018-06-18T03:10:28.011Z,15.73
2018-06-18T03:11:28.003Z,15.75
2018-06-18T03:12:27.991Z,15.72
2018-06-18T03:13:27.989Z,15.73
2018-06-18T03:14:27.980Z,15.70
2018-06-18T03:15:27.979Z,15.72
2018-06-18T03:16:27.968Z,15.76
2018-06-18T03:17:27.967Z,15.76
2018-06-18T03:18:27.958Z,15.73
2018-06-18T03:19:27.949Z,15.70
2018-06-18T03:20:27.942Z,15.72
2018-06-18T03:21:27.934Z,15.75
2018-06-18T03:22:27.936Z,15.77
2018-06-18T03:23:27.925Z,15.70
2018-06-18T03:24:27.919Z,15.70
2018-06-18T03:25:27.908Z,15.82
2018-06-18T03:26:27.909Z,15.75
2018-06-18T03:27:27.898Z,15.79
2018-06-18T03:28:27.891Z,15.72
2018-06-18T03:29:27.928Z,15.82
2018-06-18T03:30:27.893Z,15.83
2018-06-18T03:31:27.874Z,15.79
2018-06-18T03:32:27.873Z,15.79
2018-06-18T03:33:27.861Z,15.80
2018-06-18T03:34:27.853Z,15.75
2018-06-18T03:35:27.845Z,15.80
2018-06-18T03:36:27.842Z,15.75
2018-06-18T03:37:27.835Z,15.82
2018-06-18T03:38:27.844Z,15.80
2018-06-18T03:39:27.826Z,15.77
2018-06-18T03:40:27.819Z,15.76
2018-06-18T03:41:27.814Z,15.79
2018-06-18T03:42:27.808Z,15.80
2018-06-18T03:43:27.797Z,15.80
2018-06-18T03:44:27.788Z,15.80
2018-06-18T03:45:27.787Z,15.80
2018-06-18T03:46:27.787Z,15.84
2018-06-18T03:47:27.772Z,15.83
2018-06-18T03:48:27.765Z,15.86
2018-06-18T03:49:27.757Z,15.80
2018-06-18T03:50:27.752Z,15.80
2018-06-18T03:51:27.746Z,15.79
2018-06-18T03:52:27.746Z,15.86
2018-06-18T03:53:27.739Z,15.76
2018-06-18T03:54:27.732Z,15.76
2018-06-18T03:55:27.720Z,15.83
2018-06-18T03:56:27.725Z,15.76
2018-06-18T03:57:27.722Z,15.76
2018-06-18T03:58:27.714Z,15.76
2018-06-18T03:59:27.699Z,15.75
2018-06-18T04:00:27.696Z,15.80
2018-06-18T04:01:27.685Z,15.72
2018-06-18T04:02:27.676Z,15.70
2018-06-18T04:03:27.680Z,15.73
2018-06-18T04:04:27.662Z,15.75
2018-06-18T04:05:27.666Z,15.77
2018-06-18T04:06:27.655Z,15.75
2018-06-18T04:07:27.649Z,15.82
2018-06-18T04:08:27.636Z,15.72
2018-06-18T04:09:27.631Z,15.73
2018-06-18T04:10:27.624Z,15.68
2018-06-18T04:11:27.619Z,15.67
2018-06-18T04:12:27.615Z,15.73
2018-06-18T04:13:27.616Z,15.72
2018-06-18T04:14:27.601Z,15.76
2018-06-18T04:15:27.599Z,15.72
2018-06-18T04:16:27.590Z,15.83
2018-06-18T04:17:27.580Z,15.80
2018-06-18T04:18:27.573Z,15.79
2018-06-18T04:19:27.580Z,15.82
2018-06-18T04:20:27.566Z,15.83
2018-06-18T04:21:27.562Z,15.86
2018-06-18T04:22:27.550Z,15.83
2018-06-18T04:23:27.591Z,15.82
2018-06-18T04:24:27.537Z,15.77
2018-06-18T04:25:27.552Z,15.73
2018-06-18T04:26:27.530Z,15.76
2018-06-18T04:27:27.521Z,15.76
2018-06-18T04:28:27.516Z,15.64
2018-06-18T04:29:27.508Z,15.65
2018-06-18T04:30:27.497Z,15.62
2018-06-18T04:31:27.503Z,15.64
2018-06-18T04:32:27.488Z,15.61
2018-06-18T04:33:27.486Z,15.67
2018-06-18T04:34:27.478Z,15.61
2018-06-18T04:35:27.475Z,15.58
2018-06-18T04:36:27.466Z,15.61
2018-06-18T04:37:27.519Z,15.61
2018-06-18T04:38:27.452Z,15.61
2018-06-18T04:39:27.464Z,15.62
2018-06-18T04:40:27.448Z,15.62
2018-06-18T04:41:27.438Z,15.64
2018-06-18T04:42:27.472Z,15.68
2018-06-18T04:43:27.420Z,15.73
2018-06-18T04:44:27.410Z,15.70
2018-06-18T04:45:27.407Z,15.68
2018-06-18T04:46:27.401Z,15.73
2018-06-18T04:47:27.396Z,15.80
2018-06-18T04:48:27.391Z,15.76
2018-06-18T04:49:27.393Z,15.80
2018-06-18T04:50:27.381Z,15.80
2018-06-18T04:51:27.375Z,15.91
2018-06-18T04:52:27.374Z,15.92
2018-06-18T04:53:27.360Z,16.01
2018-06-18T04:54:27.363Z,16.00
2018-06-18T04:55:27.382Z,15.94
2018-06-18T04:56:27.427Z,15.98
2018-06-18T04:57:27.336Z,16.09
2018-06-18T04:58:27.331Z,16.05
2018-06-18T04:59:27.320Z,16.01
2018-06-18T05:00:27.318Z,16.01
2018-06-18T05:01:27.311Z,16.08
2018-06-18T05:02:27.307Z,16.09
2018-06-18T05:03:27.300Z,16.10
2018-06-18T05:04:27.294Z,16.05
2018-06-18T05:05:27.291Z,16.05
2018-06-18T05:06:27.281Z,16.05
2018-06-18T05:07:27.277Z,16.12
2018-06-18T05:08:27.272Z,16.20
2018-06-18T05:09:27.264Z,16.17
2018-06-18T05:10:27.262Z,16.08
2018-06-18T05:11:27.264Z,16.20
2018-06-18T05:12:27.248Z,16.23
2018-06-18T05:13:27.240Z,16.28
2018-06-18T05:14:27.236Z,16.29
2018-06-18T05:15:27.227Z,16.26
2018-06-18T05:16:27.219Z,16.29
2018-06-18T05:17:27.218Z,16.31
2018-06-18T05:18:27.214Z,16.41
2018-06-18T05:19:27.205Z,16.36
2018-06-18T05:20:27.229Z,16.36
2018-06-18T05:21:27.195Z,16.42
2018-06-18T05:22:27.187Z,16.47
2018-06-18T05:23:27.182Z,16.43
2018-06-18T05:24:27.185Z,16.42
2018-06-18T05:25:27.170Z,16.49
2018-06-18T05:26:27.211Z,16.42
2018-06-18T05:27:27.171Z,16.53
2018-06-18T05:28:27.149Z,16.49
2018-06-18T05:29:27.150Z,16.57
2018-06-18T05:30:27.142Z,16.60
2018-06-18T05:31:27.135Z,16.58
2018-06-18T05:32:27.129Z,16.56
2018-06-18T05:33:27.123Z,16.58
2018-06-18T05:34:27.117Z,16.64
2018-06-18T05:35:27.191Z,16.64
2018-06-18T05:36:27.105Z,16.69
2018-06-18T05:37:27.098Z,16.68
2018-06-18T05:38:27.123Z,16.66
2018-06-18T05:39:27.088Z,16.72
2018-06-18T05:40:27.084Z,16.71
2018-06-18T05:41:27.073Z,16.69
2018-06-18T05:42:27.071Z,16.65
2018-06-18T05:43:27.133Z,16.69
2018-06-18T05:44:27.061Z,16.74
2018-06-18T05:45:27.058Z,16.64
2018-06-18T05:46:27.052Z,16.72
2018-06-18T05:47:27.050Z,16.72
2018-06-18T05:48:27.038Z,16.75
2018-06-18T05:49:27.032Z,16.75
2018-06-18T05:50:27.042Z,16.69
2018-06-18T05:51:27.022Z,16.78
2018-06-18T05:52:27.022Z,16.72
2018-06-18T05:53:27.012Z,16.68
2018-06-18T05:54:27.005Z,16.68
2018-06-18T05:55:26.998Z,16.72
2018-06-18T05:56:26.995Z,16.76
2018-06-18T05:57:26.986Z,16.74
2018-06-18T05:58:27.020Z,16.75
2018-06-18T05:59:26.992Z,16.74
2018-06-18T06:00:26.988Z,16.86
2018-06-18T06:01:26.968Z,16.86
2018-06-18T06:02:26.958Z,16.89
2018-06-18T06:03:26.993Z,16.94
2018-06-18T06:04:26.962Z,16.93
2018-06-18T06:05:26.964Z,16.86
2018-06-18T06:06:26.941Z,16.89
2018-06-18T06:07:26.934Z,16.83
2018-06-18T06:08:26.929Z,16.79
2018-06-18T06:09:26.924Z,16.83
2018-06-18T06:10:26.919Z,16.83
2018-06-18T06:11:26.912Z,16.84
2018-06-18T06:12:26.913Z,16.87
2018-06-18T06:13:26.902Z,16.81
2018-06-18T06:14:26.895Z,16.86
2018-06-18T06:15:26.900Z,16.84
2018-06-18T06:16:26.911Z,16.86
2018-06-18T06:17:26.891Z,16.71
2018-06-18T06:18:26.874Z,16.83
2018-06-18T06:19:26.870Z,16.84
2018-06-18T06:20:26.868Z,16.76
2018-06-18T06:21:26.867Z,16.83
2018-06-18T06:22:26.884Z,16.74
2018-06-18T06:23:26.867Z,16.75
2018-06-18T06:24:26.839Z,16.68
2018-06-18T06:25:26.833Z,16.75
2018-06-18T06:26:26.830Z,16.71
2018-06-18T06:27:26.826Z,16.71
2018-06-18T06:28:26.981Z,16.74
2018-06-18T06:29:26.814Z,16.69
2018-06-18T06:30:26.811Z,16.72
2018-06-18T06:31:26.798Z,16.65
2018-06-18T06:32:26.795Z,16.75
2018-06-18T06:33:26.799Z,16.81
2018-06-18T06:34:26.788Z,16.84
2018-06-18T06:35:26.783Z,16.81
2018-06-18T06:36:26.774Z,16.83
2018-06-18T06:37:26.798Z,16.87
2018-06-18T06:38:26.760Z,16.84
2018-06-18T06:39:26.770Z,16.86
2018-06-18T06:40:26.751Z,16.83
2018-06-18T06:41:26.761Z,16.86
2018-06-18T06:42:26.743Z,16.91
2018-06-18T06:43:26.738Z,16.87
2018-06-18T06:44:26.729Z,16.97
2018-06-18T06:45:26.722Z,16.93
2018-06-18T06:46:26.714Z,16.96
2018-06-18T06:47:26.709Z,17.01
2018-06-18T06:48:26.707Z,17.02
2018-06-18T06:49:26.706Z,17.05
2018-06-18T06:50:26.696Z,17.01
2018-06-18T06:51:26.688Z,17.11
2018-06-18T06:52:26.683Z,17.12
2018-06-18T06:53:26.679Z,17.08
2018-06-18T06:54:26.678Z,17.08
2018-06-18T06:55:26.674Z,17.14
2018-06-18T06:56:26.666Z,17.11
2018-06-18T06:57:26.659Z,17.09
2018-06-18T06:58:26.655Z,17.19
2018-06-18T06:59:26.647Z,17.11
2018-06-18T07:00:26.640Z,17.15
2018-06-18T07:01:26.648Z,17.08
2018-06-18T07:02:26.634Z,17.11
2018-06-18T07:03:26.626Z,17.15
2018-06-18T07:04:26.620Z,17.15
2018-06-18T07:05:26.614Z,17.15
2018-06-18T07:06:26.613Z,17.11
2018-06-18T07:07:26.600Z,17.16
2018-06-18T07:08:26.601Z,17.20
2018-06-18T07:09:26.612Z,17.16
2018-06-18T07:10:26.591Z,17.23
2018-06-18T07:11:26.584Z,17.29
2018-06-18T07:12:26.583Z,17.30
2018-06-18T07:13:26.627Z,17.36
2018-06-18T07:14:26.567Z,17.31
2018-06-18T07:15:26.561Z,17.34
2018-06-18T07:16:26.555Z,17.34
2018-06-18T07:17:26.556Z,17.42
2018-06-18T07:18:26.555Z,17.45
2018-06-18T07:19:26.570Z,17.39
2018-06-18T07:20:26.548Z,17.42
2018-06-18T07:21:26.528Z,17.42
2018-06-18T07:22:26.564Z,17.52
2018-06-18T07:23:26.540Z,17.59
2018-06-18T07:24:26.556Z,17.54
2018-06-18T07:25:26.513Z,17.71
2018-06-18T07:26:26.505Z,17.70
2018-06-18T07:27:26.498Z,17.70
2018-06-18T07:28:26.495Z,17.85
2018-06-18T07:29:26.488Z,17.90
2018-06-18T07:30:26.532Z,17.83
2018-06-18T07:31:26.481Z,17.92
2018-06-18T07:32:26.477Z,17.90
2018-06-18T07:33:26.497Z,17.98
2018-06-18T07:34:26.465Z,17.94
2018-06-18T07:35:26.478Z,18.11
2018-06-18T07:36:26.470Z,18.11
2018-06-18T07:37:26.470Z,18.22
2018-06-18T07:38:26.479Z,18.26
2018-06-18T07:39:26.446Z,18.29
2018-06-18T07:40:26.468Z,18.41
2018-06-18T07:41:26.431Z,18.35
2018-06-18T07:42:26.428Z,18.43
2018-06-18T07:43:26.429Z,18.41
2018-06-18T07:44:26.422Z,18.43
2018-06-18T07:45:26.422Z,18.52
2018-06-18T07:46:26.415Z,18.62
2018-06-18T07:47:26.412Z,18.59
2018-06-18T07:48:26.409Z,18.62
2018-06-18T07:49:26.402Z,18.60
2018-06-18T07:50:26.397Z,18.62
2018-06-18T07:51:26.458Z,18.55
2018-06-18T07:52:26.393Z,18.56
2018-06-18T07:53:26.386Z,18.58
2018-06-18T07:54:26.385Z,18.52
2018-06-18T07:55:26.375Z,18.55
2018-06-18T07:56:26.371Z,18.55
2018-06-18T07:57:26.368Z,18.60
2018-06-18T07:58:26.371Z,18.68
2018-06-18T07:59:26.367Z,18.66
2018-06-18T08:00:26.357Z,18.70
2018-06-18T08:01:26.357Z,18.70
2018-06-18T08:02:26.349Z,18.70
2018-06-18T08:03:26.342Z,18.75
2018-06-18T08:04:26.339Z,18.70
2018-06-18T08:05:26.340Z,18.71
2018-06-18T08:06:26.693Z,18.73
2018-06-18T08:07:26.329Z,18.71
2018-06-18T08:08:26.325Z,18.75
2018-06-18T08:09:26.321Z,18.78
2018-06-18T08:10:26.318Z,18.81
2018-06-18T08:11:26.312Z,18.75
2018-06-18T08:12:26.320Z,18.70
2018-06-18T08:13:26.308Z,18.84
2018-06-18T08:14:26.307Z,18.71
2018-06-18T08:15:26.297Z,18.74
2018-06-18T08:16:26.291Z,18.77
2018-06-18T08:17:26.286Z,18.73
2018-06-18T08:18:26.296Z,18.75
2018-06-18T08:19:26.286Z,18.86
2018-06-18T08:20:26.282Z,18.73
2018-06-18T08:21:26.277Z,18.77
2018-06-18T08:22:26.270Z,18.77
2018-06-18T08:23:26.270Z,18.86
2018-06-18T08:24:26.259Z,18.74
2018-06-18T08:25:26.256Z,18.90
2018-06-18T08:26:26.259Z,18.86
2018-06-18T08:27:26.251Z,18.93
2018-06-18T08:28:26.247Z,18.95
2018-06-18T08:29:26.240Z,18.98
2018-06-18T08:30:26.242Z,18.95
2018-06-18T08:31:26.236Z,18.99
2018-06-18T08:32:26.232Z,18.93
2018-06-18T08:33:26.224Z,19.04
2018-06-18T08:34:26.227Z,19.04
2018-06-18T08:35:26.222Z,18.95
2018-06-18T08:36:26.216Z,19.08
2018-06-18T08:37:26.251Z,19.00
2018-06-18T08:38:26.205Z,19.07
2018-06-18T08:39:26.205Z,19.21
2018-06-18T08:40:26.203Z,19.19
2018-06-18T08:41:26.201Z,19.39
2018-06-18T08:42:26.195Z,19.39
2018-06-18T08:43:26.190Z,19.52
2018-06-18T08:44:26.184Z,19.56
2018-06-18T08:45:26.182Z,19.69
2018-06-18T08:46:26.185Z,19.86
2018-06-18T08:47:26.182Z,19.88
2018-06-18T08:48:26.174Z,20.07
2018-06-18T08:49:26.171Z,20.16
2018-06-18T08:50:26.166Z,20.25
2018-06-18T08:51:26.162Z,20.21
2018-06-18T08:52:26.161Z,20.36
2018-06-18T08:53:26.158Z,20.40
2018-06-18T08:54:26.154Z,20.37
2018-06-18T08:55:26.154Z,20.37
2018-06-18T08:56:26.148Z,20.48
2018-06-18T08:57:26.151Z,20.41
2018-06-18T08:58:26.144Z,20.58
2018-06-18T08:59:26.143Z,20.59
2018-06-18T09:00:26.141Z,20.55
2018-06-18T09:01:26.138Z,20.47
2018-06-18T09:02:26.138Z,20.47
2018-06-18T09:03:26.133Z,20.36
2018-06-18T09:04:26.129Z,20.37
2018-06-18T09:05:26.126Z,20.39
2018-06-18T09:06:26.125Z,20.40
2018-06-18T09:07:26.125Z,20.67
2018-06-18T09:08:26.120Z,20.88
2018-06-18T09:09:26.120Z,20.77
2018-06-18T09:10:26.134Z,20.95
2018-06-18T09:11:26.112Z,21.33
2018-06-18T09:12:26.111Z,21.64
2018-06-18T09:13:26.115Z,21.57
2018-06-18T09:14:26.111Z,21.66
2018-06-18T09:15:26.108Z,21.69
2018-06-18T09:16:26.105Z,21.67
2018-06-18T09:17:26.108Z,21.82
2018-06-18T09:18:26.104Z,21.83
2018-06-18T09:19:26.106Z,21.80
2018-06-18T09:20:26.107Z,21.70
2018-06-18T09:21:26.114Z,21.61
2018-06-18T09:22:26.119Z,21.61
2018-06-18T09:23:26.104Z,21.58
2018-06-18T09:24:26.111Z,21.62
2018-06-18T09:25:26.101Z,21.46
2018-06-18T09:26:26.109Z,21.39
2018-06-18T09:27:26.100Z,21.30
2018-06-18T09:28:26.102Z,21.27
2018-06-18T09:29:26.102Z,21.20
2018-06-18T09:30:26.098Z,21.12
2018-06-18T09:31:26.098Z,21.12
2018-06-18T09:32:26.184Z,20.95
2018-06-18T09:33:26.108Z,20.99
2018-06-18T09:34:26.098Z,20.95
2018-06-18T09:35:26.095Z,20.93
2018-06-18T09:36:26.092Z,20.92
2018-06-18T09:37:26.091Z,20.95
2018-06-18T09:38:26.091Z,20.92
2018-06-18T09:39:26.083Z,21.03
2018-06-18T09:40:26.086Z,21.07
2018-06-18T09:41:26.081Z,21.15
2018-06-18T09:42:26.079Z,21.27
2018-06-18T09:43:26.082Z,21.35
2018-06-18T09:44:26.079Z,21.36
2018-06-18T09:45:26.090Z,21.39
2018-06-18T09:46:26.108Z,21.39
2018-06-18T09:47:26.073Z,21.55
2018-06-18T09:48:26.069Z,21.54
2018-06-18T09:49:26.071Z,21.55
2018-06-18T09:50:26.071Z,21.46
2018-06-18T09:51:26.073Z,21.30
2018-06-18T09:52:26.063Z,21.29
2018-06-18T09:53:26.060Z,21.22
2018-06-18T09:54:26.061Z,21.07
2018-06-18T09:55:26.059Z,20.96
2018-06-18T09:56:26.058Z,20.97
2018-06-18T09:57:26.055Z,20.87
2018-06-18T09:58:26.056Z,20.92
2018-06-18T09:59:26.049Z,20.93
2018-06-18T10:00:26.046Z,20.96
2018-06-18T10:01:26.042Z,21.09
2018-06-18T10:02:26.061Z,21.17
2018-06-18T10:03:26.042Z,21.32
2018-06-18T10:04:26.039Z,21.50
2018-06-18T10:05:26.040Z,21.58
2018-06-18T10:06:26.032Z,21.73
2018-06-18T10:07:26.030Z,21.70
2018-06-18T10:08:26.147Z,21.82
2018-06-18T10:09:26.033Z,21.73
2018-06-18T10:10:26.030Z,21.77
2018-06-18T10:11:26.027Z,21.69
2018-06-18T10:12:26.024Z,21.75
2018-06-18T10:13:26.018Z,21.70
2018-06-18T10:14:26.024Z,21.64
2018-06-18T10:15:26.021Z,21.64
2018-06-18T10:16:26.020Z,21.51
2018-06-18T10:17:26.016Z,21.32
2018-06-18T10:18:26.013Z,21.36
2018-06-18T10:19:26.011Z,21.14
2018-06-18T10:20:26.010Z,21.27
2018-06-18T10:21:26.006Z,21.20
2018-06-18T10:22:26.003Z,21.11
2018-06-18T10:23:26.003Z,20.96
2018-06-18T10:24:26.011Z,20.90
2018-06-18T10:25:25.999Z,20.88
2018-06-18T10:26:26.001Z,20.93
2018-06-18T10:27:25.990Z,20.92
2018-06-18T10:28:25.990Z,20.96
2018-06-18T10:29:25.991Z,20.90
2018-06-18T10:30:25.986Z,20.96
2018-06-18T10:31:25.983Z,21.02
2018-06-18T10:32:25.989Z,20.99
2018-06-18T10:33:25.980Z,21.03
2018-06-18T10:34:25.972Z,21.09
2018-06-18T10:35:25.971Z,21.07
2018-06-18T10:36:25.969Z,21.20
2018-06-18T10:37:25.967Z,21.05
2018-06-18T10:38:25.966Z,21.17
2018-06-18T10:39:25.960Z,21.15
2018-06-18T10:40:25.964Z,21.35
2018-06-18T10:41:25.959Z,21.37
2018-06-18T10:42:25.956Z,21.48
2018-06-18T10:43:25.953Z,21.61
2018-06-18T10:44:25.951Z,21.69
2018-06-18T10:45:25.952Z,21.69
2018-06-18T10:46:25.950Z,21.69
2018-06-18T10:47:25.944Z,21.82
2018-06-18T10:48:25.943Z,21.91
2018-06-18T10:49:25.936Z,21.82
2018-06-18T10:50:25.934Z,21.88
2018-06-18T10:51:25.931Z,21.92
2018-06-18T10:52:25.934Z,21.91
2018-06-18T10:53:25.930Z,21.95
2018-06-18T10:54:25.929Z,21.93
2018-06-18T10:55:25.923Z,21.98
2018-06-18T10:56:25.925Z,21.99
2018-06-18T10:57:25.931Z,21.96
2018-06-18T10:58:25.922Z,21.91
2018-06-18T10:59:25.922Z,21.92
2018-06-18T11:00:25.918Z,21.88
2018-06-18T11:01:25.915Z,21.80
2018-06-18T11:02:25.912Z,21.82
2018-06-18T11:03:25.908Z,21.73
2018-06-18T11:04:25.928Z,21.70
2018-06-18T11:05:25.912Z,21.72
2018-06-18T11:06:25.907Z,21.64
2018-06-18T11:07:25.906Z,21.61
2018-06-18T11:08:26.734Z,21.66
2018-06-18T11:09:25.897Z,21.64
2018-06-18T11:10:25.894Z,21.67
2018-06-18T11:11:25.892Z,21.61
2018-06-18T11:12:25.894Z,21.58
2018-06-18T11:13:25.888Z,21.69
2018-06-18T11:14:25.889Z,21.50
2018-06-18T11:15:25.885Z,21.62
2018-06-18T11:16:26.040Z,21.50
2018-06-18T11:17:26.322Z,21.36
2018-06-18T11:18:25.874Z,21.45
2018-06-18T11:19:25.875Z,21.50
2018-06-18T11:20:25.876Z,21.48
2018-06-18T11:21:25.872Z,21.69
2018-06-18T11:22:25.868Z,21.73
2018-06-18T11:23:25.869Z,21.72
2018-06-18T11:24:25.928Z,21.72
2018-06-18T11:25:25.864Z,21.83
2018-06-18T11:26:25.901Z,21.89
2018-06-18T11:27:25.859Z,21.95
2018-06-18T11:28:25.899Z,22.06
2018-06-18T11:29:25.853Z,22.20
2018-06-18T11:30:25.854Z,22.15
2018-06-18T11:31:25.857Z,22.22
2018-06-18T11:32:25.906Z,22.23
2018-06-18T11:33:25.848Z,22.17
2018-06-18T11:34:25.850Z,22.23
2018-06-18T11:35:25.845Z,22.23
2018-06-18T11:36:25.839Z,22.11
2018-06-18T11:37:25.838Z,22.15
2018-06-18T11:38:25.839Z,22.10
2018-06-18T11:39:25.847Z,22.08
2018-06-18T11:40:25.838Z,22.02
2018-06-18T11:41:25.835Z,22.15
2018-06-18T11:42:25.836Z,22.13
2018-06-18T11:43:25.878Z,22.18
2018-06-18T11:44:25.830Z,22.33
2018-06-18T11:45:25.828Z,22.33
2018-06-18T11:46:25.836Z,22.18
2018-06-18T11:47:25.827Z,22.15
2018-06-18T11:48:25.825Z,22.20
2018-06-18T11:49:25.824Z,22.22
2018-06-18T11:50:25.828Z,22.18
2018-06-18T11:51:25.817Z,22.20
2018-06-18T11:52:25.833Z,22.22
2018-06-18T11:53:25.819Z,22.20
2018-06-18T11:54:25.819Z,22.13
2018-06-18T11:55:25.819Z,22.13
2018-06-18T11:56:25.817Z,22.11
2018-06-18T11:57:25.811Z,22.10
2018-06-18T11:58:25.872Z,22.20
2018-06-18T11:59:25.807Z,22.13
2018-06-18T12:00:25.810Z,22.20
2018-06-18T12:01:25.858Z,22.18
2018-06-18T12:02:25.813Z,22.13
2018-06-18T12:03:25.806Z,22.14
2018-06-18T12:04:25.800Z,21.96
2018-06-18T12:05:25.796Z,22.06
2018-06-18T12:06:25.797Z,22.17
2018-06-18T12:07:25.801Z,22.14
2018-06-18T12:08:25.795Z,22.06
2018-06-18T12:09:25.858Z,22.13
2018-06-18T12:10:25.790Z,22.13
2018-06-18T12:11:25.785Z,22.08
2018-06-18T12:12:25.786Z,22.11
2018-06-18T12:13:25.781Z,22.14
2018-06-18T12:14:25.804Z,22.07
2018-06-18T12:15:25.778Z,21.96
2018-06-18T12:16:25.774Z,21.96
2018-06-18T12:17:25.775Z,21.88
2018-06-18T12:18:25.771Z,21.91
2018-06-18T12:19:25.775Z,21.91
2018-06-18T12:20:25.768Z,21.91
2018-06-18T12:21:25.766Z,21.82
2018-06-18T12:22:25.771Z,21.88
2018-06-18T12:23:25.760Z,21.83
2018-06-18T12:24:25.761Z,21.83
2018-06-18T12:25:25.765Z,21.88
2018-06-18T12:26:25.752Z,21.83
2018-06-18T12:27:25.808Z,21.82
2018-06-18T12:28:25.752Z,21.69
2018-06-18T12:29:25.750Z,21.72
2018-06-18T12:30:25.748Z,21.75
2018-06-18T12:31:25.742Z,21.76
2018-06-18T12:32:25.741Z,21.76
2018-06-18T12:33:25.738Z,21.76
2018-06-18T12:34:25.732Z,21.75
2018-06-18T12:35:25.793Z,21.69
2018-06-18T12:36:25.732Z,21.72
2018-06-18T12:37:25.730Z,21.57
2018-06-18T12:38:25.726Z,21.57
2018-06-18T12:39:25.723Z,21.52
2018-06-18T12:40:25.724Z,21.45
2018-06-18T12:41:25.772Z,21.43
2018-06-18T12:42:25.719Z,21.40
2018-06-18T12:43:25.713Z,21.39
2018-06-18T12:44:25.715Z,21.33
2018-06-18T12:45:25.740Z,21.35
2018-06-18T12:46:25.707Z,21.32
2018-06-18T12:47:25.705Z,21.24
2018-06-18T12:48:25.710Z,21.11
2018-06-18T12:49:25.699Z,21.03
2018-06-18T12:50:25.696Z,20.92
2018-06-18T12:51:25.705Z,20.92
2018-06-18T12:52:25.690Z,21.05